Weather at Tom Madsen (Dutch Harbor) Airport

Public forecast

Using degrees Fahrenheit for public forecast. Weather courtesy of forecast.io.

Current aviation weather report (METAR) for Tom Madsen (Dutch Harbor) Airport

2024/06/22 21:12 (retrieved 33 minutes ago)

PADU 222112Z 15010KT 10SM OVC014 08/04 A3006 RMK AO2

Aviation forecast (TAF) for Tom Madsen (Dutch Harbor) Airport

2024/06/22 18:24 (retrieved 3 hours ago)

TAF PADU 221721Z 2218/2318 15003KT P6SM BKN015 OVC025 FM230000 09008KT P6SM OVC015